Tiempo atmosférico en la estación meteorológica de San Bartolome Tirajana, Las Tirajanas, Las Palmas (960 m.)



Fecha
DESCASC
Temp. máxima en grados centígrados (hora)
DESCASC
Temp. mínima en grados centígrados (hora)
DESCASC
Temp. media en grados centígrados
DESCASC
Racha de viento máxima en m/sg (hora)
DESCASC
Velocidad máxima media en intervalos de 10 minutos(hora)
DESCASC
Precipitaciones diarias en mm
DESCASC
Precipitaciones de 00:00 a 06:00 en mm
DESCASC
Precipitaciones de 06:00 a 12:00 en mm
DESCASC
Precipitaciones de 12:00 a 18:00 en mm
DESCASC
Precipitaciones de 18:00 a 24:00 en mm
DESCASC
08-12-2019 17.4 (14:20) 10.3 (07:40) 13.8 13.33 (00:20) 5.83 (15:50) 0 0 0 0 0
07-12-2019 15.3 (11:30) 11.1 (04:20) 13.2 16.39 (16:50) 7.78 (02:10) 0 0 0 0 0
06-12-2019 13 (14:40) 9 (01:10) 11 19.17 (22:30) 10 (22:40) 6.6 4.6 0 0.2 1.8
05-12-2019 12.8 (00:00) 8.9 (00:00) 10.8 19.17 (09:00) 11.11 (05:30) 20.4 7.4 0.4 2.2 10.4
04-12-2019 18.1 (12:30) 8.8 (00:00) 13.5 11.39 (22:00) 5 (23:40) 0 0 0 0 0
03-12-2019 17.9 (13:40) 10.3 (00:00) 14.1 10.28 (14:40) 4.44 (14:40) 0.4 0.2 0.2 0 0
02-12-2019 18.8 (14:00) 9.8 (00:00) 14.3 8.61 (14:10) 3.61 (14:10) 0 0 0 0 0
01-12-2019 23.7 (11:40) 13.1 (00:00) 18.4 4.44 (13:00) 2.5 (08:10) 0 0 0 0 0
30-11-2019 26.2 (13:20) 17.6 (00:00) 21.9 5 (13:40) 1.94 (02:50) 0 0 0 0 0
29-11-2019 25 (13:30) 16.3 (00:00) 20.6 6.11 (13:10) 2.22 (14:30) 0 0 0 0 0
28-11-2019 22.9 (12:30) 14.6 (00:00) 18.8 5.56 (11:50) 1.94 (07:20) 0 0 0 0 0
27-11-2019 23 (12:40) 13.7 (00:00) 18.3 6.11 (13:10) 2.22 (13:40) 0 0 0 0 0
26-11-2019 22 (12:40) 14.3 (00:00) 18.2 5.56 (13:30) 2.22 (21:40) 0 0 0 0 0
25-11-2019 20.6 (12:50) 11.2 (00:00) 15.9 4.44 (13:10) 2.5 (03:20) 0 0 0 0 0
24-11-2019 20.8 (13:40) 10.4 (00:00) 15.6 5 (11:10) 2.22 (11:20) 0 0 0 0 0
23-11-2019 21 (13:20) 12.2 (00:00) 16.6 5 (15:10) 2.5 (15:10) 0 0 0 0 0
22-11-2019 21.8 (13:10) 12.2 (00:00) 17 4.72 (10:40) 1.67 (01:00) 0 0 0 0 0
21-11-2019 19.9 (13:00) 11.9 (00:00) 15.9 7.5 (08:10) 3.89 (09:00) 0 0 0 0 0
20-11-2019 21.1 (13:10) 9.7 (00:00) 15.4 4.72 (12:20) 1.94 (12:00) 0 0 0 0 0
19-11-2019 19.9 (12:00) 9.1 (00:00) 14.5 5.56 (13:40) 2.5 (13:40) 0 0 0 0 0
18-11-2019 19.9 (13:30) 8.7 (00:00) 14.3 5.56 (00:10) 3.89 (00:10) 0 0 0 0 0
17-11-2019 17.7 (13:30) 8.7 (00:00) 13.2 10.28 (11:30) 3.61 (11:30) 0 0 0 0 0
16-11-2019 18.9 (15:10) 10.5 (00:00) 14.7 17.5 (11:20) 8.06 (11:40) 0 0 0 0 0
15-11-2019 14.9 (12:30) 10.7 (00:00) 12.8 20.28 (23:30) 7.78 (18:20) 1.2 0 0.6 0.6 0
14-11-2019 20.5 (14:00) 11.2 (00:00) 15.8 6.11 (01:00) 3.61 (01:00) 0 0 0 0 0
13-11-2019 23.1 (14:30) 13 (00:00) 18.1 21.94 (00:20) 11.67 (01:00) 0 0 0 0 0
12-11-2019 22.9 (13:40) 14.7 (00:00) 18.8 26.11 (00:30) 16.39 (00:30) 0 0 0 0 0

Gráficas

Temp. máximas Temp. mínimas Temp. medias Precipitaciones Rachas de viento máximas Velocidades máximas media en intervalos de 10 minutos

Datos horarios

Fecha y hora oficial Temperatura (ºC) Velocidad del viento (km/h) Dirección del viento Racha (km/h) Dirección de racha Precipitación (mm) Presión (hPa) Tendencia (hPa) Humedad (%)
2019-12-11 23:00:00 15.4 4 Sur 14 Sur 0 -- -- 16
2019-12-11 22:00:00 13.1 5 Oeste 14 Sudoeste 0 -- -- 36
2019-12-11 21:00:00 15.3 6 Sudeste 13 Sudeste 0 -- -- 37
2019-12-11 20:00:00 16.6 6 Sudeste 19 Sur 0 -- -- 29
2019-12-11 19:00:00 12.9 5 Oeste 10 Sudoeste 0 -- -- 83
2019-12-11 18:00:00 15.2 3 Este 6 Sudeste 0 -- -- 76
2019-12-11 17:00:00 17.8 3 Sur 12 Este 0 -- -- 66
2019-12-11 16:00:00 18.7 5 Este 13 Este 0 -- -- 61
2019-12-11 15:00:00 18.7 5 Este 15 Sudeste 0 -- -- 57
2019-12-11 14:00:00 20 4 Este 17 Este 0 -- -- 50
2019-12-11 13:00:00 19.5 4 Este 13 Este 0 -- -- 52
2019-12-11 12:00:00 18.7 6 Este 14 Este 0 -- -- 57
2019-12-11 11:00:00 18 6 Este 13 Este 0 -- -- 56
2019-12-11 10:00:00 17.2 4 Este 8 Este 0 -- -- 55
2019-12-11 09:00:00 14.8 3 Sudeste 8 Este 0 -- -- 44
2019-12-11 08:00:00 13.8 2 Sudoeste 9 Sudeste 0 -- -- 37
2019-12-11 07:00:00 14.3 4 Sudeste 13 Este 0 -- -- 29
2019-12-11 06:00:00 12.6 7 Sudeste 12 Sudeste 0 -- -- 52
2019-12-11 05:00:00 13.6 7 Sur 14 Sur 0 -- -- 42
2019-12-11 04:00:00 13.2 7 Sudoeste 12 Sudoeste 0 -- -- 43
2019-12-11 03:00:00 13.4 5 Sudoeste 15 Sudeste 0 -- -- 58
2019-12-11 02:00:00 13.6 8 Sudoeste 16 Sur 0 -- -- 61
2019-12-11 01:00:00 12.7 3 Sur 9 Noroeste 0 -- -- 70
2019-12-11 00:00:00 12.7 2 Sudoeste 13 Sur 0 -- -- 69
2019-12-10 23:00:00 13.4 4 Sudeste 11 Sudeste 0 -- -- 66
2019-12-10 22:00:00 13.7 3 Oeste 12 Sudoeste 0 -- -- 58
2019-12-10 21:00:00 14.6 4 Sudoeste 14 Sur 0 -- -- 56
2019-12-10 20:00:00 15.6 6 Sur 14 Sur 0 -- -- 50
2019-12-10 19:00:00 13.6 6 Sudeste 14 Sudoeste 0 -- -- 69
2019-12-10 18:00:00 15 4 Este 9 Sudoeste 0 -- -- 65
2019-12-10 17:00:00 18.2 2 Sudeste 10 Sudeste 0 -- -- 55
2019-12-10 16:00:00 19.3 5 Sudeste 12 Sudeste 0 -- -- 54
2019-12-10 15:00:00 19.8 3 Este 13 Nordeste 0 -- -- 52
2019-12-10 14:00:00 20.3 4 Este 15 Sudeste 0 -- -- 48
2019-12-10 13:00:00 19.9 5 Este 14 Este 0 -- -- 43
2019-12-10 12:00:00 19.5 5 Este 14 Este 0 -- -- 41
2019-12-10 11:00:00 18.8 5 Este 12 Este 0 -- -- 29
2019-12-10 10:00:00 17.9 2 Sudeste 8 Sur 0 -- -- 23
2019-12-10 09:00:00 14.9 4 Sur 11 Sur 0 -- -- 22
2019-12-10 08:00:00 13.3 7 Sudoeste 12 Sur 0 -- -- 22
2019-12-10 07:00:00 12.5 8 Sudoeste 14 Sur 0 -- -- 26
2019-12-10 06:00:00 12.3 8 Sudoeste 12 Sudoeste 0 -- -- 27
2019-12-10 05:00:00 12.4 7 Sudoeste 12 Sudoeste 0 -- -- 29
2019-12-10 04:00:00 11.9 5 Oeste 7 Oeste 0 -- -- 24
2019-12-10 03:00:00 13.2 5 Sur 10 Sudoeste 0 -- -- 23
2019-12-10 02:00:00 12.2 3 Sur 8 Sudoeste 0 -- -- 37
2019-12-10 01:00:00 11 4 Oeste 8 Sudoeste 0 -- -- 42
2019-12-10 00:00:00 9.6 6 Noroeste 8 Noroeste 0 -- -- 68
2019-12-09 23:00:00 10.3 2 Noroeste 5 Este 0 -- -- 69
2019-12-09 22:00:00 10.4 3 Noroeste 6 Oeste 0 -- -- 70
2019-12-09 21:00:00 11.1 0 Calma 5 Oeste 0 -- -- 70
2019-12-09 20:00:00 11.6 3 Sudoeste 5 Oeste 0 -- -- 63
2019-12-09 19:00:00 12.1 3 Sudoeste 5 Sudoeste 0 -- -- 56
2019-12-09 18:00:00 14.1 0 Calma 6 Sudoeste 0 -- -- 50
2019-12-09 17:00:00 17 4 Sudoeste 12 Sudeste 0 -- -- 44
2019-12-09 16:00:00 17.7 6 Sudeste 14 Sudeste 0 -- -- 45
2019-12-09 15:00:00 18.2 5 Sur 22 Sur 0 -- -- 44
2019-12-09 14:00:00 18.6 6 Sudeste 26 Sudeste 0 -- -- 41
2019-12-09 13:00:00 18.8 6 Este 21 Este 0 -- -- 40
2019-12-09 12:00:00 18 8 Este 28 Este 0 -- -- 45
2019-12-09 11:00:00 17.9 5 Este 24 Este 0 -- -- 43
2019-12-09 10:00:00 16 4 Este 15 Este 0 -- -- 49
2019-12-09 09:00:00 12.4 4 Nordeste 19 Este 0 -- -- 66
2019-12-09 08:00:00 10.4 3 Nordeste 29 Nordeste 0 -- -- 70
2019-12-09 07:00:00 12.3 17 Nordeste 39 Nordeste 0 -- -- 53
2019-12-09 06:00:00 12 10 Nordeste 33 Nordeste 0 -- -- 53
2019-12-09 05:00:00 10.9 6 Este 39 Nordeste 0 -- -- 58
2019-12-09 04:00:00 10.8 9 Este 28 Este 0 -- -- 65
2019-12-09 03:00:00 10.5 10 Sudoeste 21 Sur 0 -- -- 70
2019-12-09 02:00:00 10.1 9 Sudoeste 19 Oeste 0 -- -- 72
2019-12-09 01:00:00 10.6 10 Sur 23 Sudoeste 0 -- -- 68
2019-12-09 00:00:00 10.6 7 Sudoeste 20 Sur 0 -- -- 66
2019-12-08 23:00:00 10.9 8 Sudoeste 22 Sur 0 -- -- 69
2019-12-08 22:00:00 11.4 11 Sudoeste 24 Sur 0 -- -- 63
2019-12-08 21:00:00 12.3 9 Sudeste 26 Este 0 -- -- 54
2019-12-08 20:00:00 13 6 Oeste 21 Sur 0 -- -- 41
2019-12-08 19:00:00 12.7 5 Sur 26 Sur 0 -- -- 66
2019-12-08 18:00:00 13.2 13 Sudoeste 24 Sudoeste 0 -- -- 54
2019-12-08 17:00:00 15 8 Nordeste 40 Noroeste 0 -- -- 42
2019-12-08 16:00:00 14.8 19 Noroeste 44 Norte 0 -- -- 51
2019-12-08 15:00:00 15.9 14 Este 35 Este 0 -- -- 48
2019-12-08 14:00:00 16.8 9 Este 39 Nordeste 0 -- -- 46
2019-12-08 13:00:00 16 8 Nordeste 46 Este 0 -- -- 52
2019-12-08 12:00:00 14.8 13 Norte 43 Noroeste 0 -- -- 57
2019-12-08 11:00:00 14.7 7 Oeste 38 Noroeste 0 -- -- 54
2019-12-08 10:00:00 14.4 7 Oeste 35 Sudoeste 0 -- -- 52
2019-12-08 09:00:00 11.9 10 Sudoeste 25 Oeste 0 -- -- 63
2019-12-08 08:00:00 10.3 8 Oeste 21 Sudoeste 0 -- -- 67
2019-12-08 07:00:00 10.5 8 Sur 18 Sudoeste 0 -- -- 67
2019-12-08 06:00:00 11.2 5 Norte 36 Noroeste 0 -- -- 61
2019-12-08 05:00:00 11.7 15 Norte 40 Norte 0 -- -- 59
2019-12-08 04:00:00 11.7 7 Oeste 26 Noroeste 0 -- -- 69
2019-12-08 03:00:00 12.1 7 Noroeste 22 Noroeste 0 -- -- 67
2019-12-08 02:00:00 12.2 6 Sur 41 Este 0 -- -- 71
2019-12-08 01:00:00 12.5 9 Sudeste 48 Nordeste 0 -- -- 73
2019-12-08 00:00:00 12.3 12 Sudoeste 35 Nordeste 0 -- -- 71
2019-12-07 23:00:00 12.5 9 Sur 30 Norte 0 -- -- 71
2019-12-07 22:00:00 12.5 10 Sudoeste 27 Oeste 0 -- -- 70
2019-12-07 21:00:00 12.6 12 Sudoeste 37 Nordeste 0 -- -- 73
2019-12-07 20:00:00 12.7 6 Sudoeste 39 Sudoeste 0 -- -- 69
2019-12-07 19:00:00 12.8 11 Oeste 34 Noroeste 0 -- -- 67
2019-12-07 18:00:00 13.1 13 Sudoeste 45 Noroeste 0 -- -- 68
2019-12-07 17:00:00 13.6 12 Norte 59 Noroeste 0 -- -- 64
2019-12-07 16:00:00 13.7 10 Norte 35 Noroeste 0 -- -- 67
2019-12-07 15:00:00 13.9 10 Norte 45 Noroeste 0 -- -- 64
2019-12-07 14:00:00 14.1 7 Oeste 39 Nordeste 0 -- -- 64
2019-12-07 13:00:00 14 8 Nordeste 30 Norte 0 -- -- 65
2019-12-07 12:00:00 14.4 9 Norte 30 Nordeste 0 -- -- 65
2019-12-07 11:00:00 14.1 8 Sudoeste 42 Norte 0 -- -- 70
2019-12-07 10:00:00 12.8 14 Norte 46 Noroeste 0 -- -- 75
2019-12-07 09:00:00 12.7 13 Noroeste 45 Noroeste 0 -- -- 70
2019-12-07 08:00:00 12.1 16 Norte 37 Norte 0 -- -- 72
2019-12-07 07:00:00 11.7 11 Noroeste 36 Noroeste 0 -- -- 69
2019-12-07 06:00:00 11.5 12 Oeste 39 Norte 0 -- -- 68
2019-12-07 05:00:00 11.3 19 Norte 45 Norte 0 -- -- 70
2019-12-07 04:00:00 11.2 11 Norte 44 Norte 0 -- -- 70
2019-12-07 03:00:00 11.4 15 Norte 51 Norte 0 -- -- 70
2019-12-07 02:00:00 11.7 20 Norte 54 Nordeste 0 -- -- 68
2019-12-07 01:00:00 11.9 20 Nordeste 46 Norte 0 -- -- 70
2019-12-07 00:00:00 11.6 29 Norte 62 Norte 0 -- -- 72
2019-12-06 23:00:00 11.5 20 Norte 69 Norte 0 -- -- 75
2019-12-06 22:00:00 11 24 Norte 54 Norte 0.2 -- -- 75
2019-12-06 21:00:00 11.3 13 Noroeste 45 Noroeste 1 -- -- 80
2019-12-06 20:00:00 11.1 14 Noroeste 37 Noroeste 0.6 -- -- 79
2019-12-06 19:00:00 11.4 14 Norte 50 Nordeste 0 -- -- 68
2019-12-06 18:00:00 11.7 17 Norte 54 Este 0 -- -- 67
2019-12-06 17:00:00 12.3 17 Norte 54 Nordeste 0 -- -- 73
2019-12-06 16:00:00 12.4 26 Norte 67 Noroeste 0 -- -- 76
2019-12-06 15:00:00 12.8 30 Noroeste 64 Norte 0 -- -- 68
2019-12-06 14:00:00 12.5 22 Norte 52 Noroeste 0 -- -- 71
2019-12-06 13:00:00 12.7 25 Norte 54 Norte 0.2 -- -- 71
2019-12-06 12:00:00 12.4 15 Norte 53 Nordeste 0 -- -- 68
2019-12-06 11:00:00 12.3 17 Nordeste 48 Nordeste 0 -- -- 72
2019-12-06 10:00:00 12.5 24 Norte 44 Norte 0 -- -- 72
2019-12-06 09:00:00 11.2 15 Norte 50 Norte 0 -- -- 70
2019-12-06 08:00:00 11 23 Norte 62 Nordeste 0 -- -- 67
2019-12-06 07:00:00 10.6 25 Norte 58 Norte 0 -- -- 71
2019-12-06 06:00:00 10.7 18 Norte 54 Norte 0 -- -- 78
2019-12-06 05:00:00 10.4 29 Norte 55 Norte 0.2 -- -- 82
2019-12-06 04:00:00 10.5 29 Norte 64 Noroeste 0 -- -- 73
2019-12-06 03:00:00 10.5 23 Norte 50 Noroeste 0 -- -- 78
2019-12-06 02:00:00 9.7 13 Nordeste 43 Noroeste 1.2 -- -- 85
2019-12-06 01:00:00 9.2 7 Este 32 Este 3.2 -- -- 91
2019-12-06 00:00:00 10 6 Norte 48 Noroeste 1 -- -- 83
2019-12-05 23:00:00 10.4 21 Norte 59 Norte 0.6 -- -- 76
2019-12-05 22:00:00 9 7 Norte 26 Oeste 7 -- -- 88
2019-12-05 21:00:00 10 10 Sudoeste 29 Sudeste 1 -- -- 77
2019-12-05 20:00:00 10.4 8 Este 60 Noroeste 0 -- -- 76
2019-12-05 19:00:00 9.8 22 Noroeste 52 Noroeste 0.8 -- -- 76
2019-12-05 18:00:00 10.3 15 Noroeste 52 Noroeste 0.6 -- -- 81
2019-12-05 17:00:00 11.2 10 Noroeste 37 Noroeste 0.4 -- -- 72
2019-12-05 16:00:00 12.3 17 Noroeste 51 Noroeste 0 -- -- 67
2019-12-05 15:00:00 11.4 8 Noroeste 30 Oeste 0.6 -- -- 77
2019-12-05 14:00:00 11.3 10 Oeste 48 Nordeste 0.4 -- -- 78
2019-12-05 13:00:00 11.8 10 Noroeste 43 Noroeste 0.2 -- -- 69
2019-12-05 12:00:00 11.5 8 Sudoeste 33 Noroeste 0.2 -- -- 72
2019-12-05 11:00:00 11.3 4 Noroeste 38 Noroeste 0.2 -- -- 77
2019-12-05 10:00:00 11.2 13 Oeste 68 Noroeste 0 -- -- 69
2019-12-05 09:00:00 10.8 34 Noroeste 69 Noroeste 0 -- -- 63
2019-12-05 08:00:00 10.1 10 Noroeste 57 Noroeste 0 -- -- 69
2019-12-05 07:00:00 10.1 26 Noroeste 69 Noroeste 0 -- -- 69
2019-12-05 06:00:00 10.8 28 Noroeste 69 Noroeste 0 -- -- 74
2019-12-05 05:00:00 10.9 31 Noroeste 57 Noroeste 0.2 -- -- 81
2019-12-05 04:00:00 11.2 3 Sur 8 Sudeste 0.8 -- -- 97
2019-12-05 03:00:00 11.1 2 Nordeste 7 Este 2.6 -- -- 96
2019-12-05 02:00:00 11.2 3 Este 6 Oeste 2.6 -- -- 95
2019-12-05 01:00:00 11.6 5 Noroeste 22 Oeste 1.2 -- -- 93
2019-12-05 00:00:00 12.8 10 Oeste 33 Noroeste 0 -- -- 81
2019-12-04 23:00:00 12.6 13 Oeste 37 Noroeste 0 -- -- 77
2019-12-04 22:00:00 12.4 14 Noroeste 41 Noroeste 0 -- -- 76
2019-12-04 21:00:00 11.5 4 Nordeste 9 Sur 0 -- -- 87
2019-12-04 20:00:00 12 3 Sudeste 8 Sur 0 -- -- 83
2019-12-04 19:00:00 12.4 4 Sudeste 9 Sudeste 0 -- -- 78
2019-12-04 18:00:00 13.9 2 Sudeste 11 Sudeste 0 -- -- 72
2019-12-04 17:00:00 16 3 Sudeste 11 Sudeste 0 -- -- 64
2019-12-04 16:00:00 16.1 3 Este 16 Este 0 -- -- 61
2019-12-04 15:00:00 16.4 8 Este 18 Este 0 -- -- 60
2019-12-04 14:00:00 15.7 6 Sur 21 Sudeste 0 -- -- 59
2019-12-04 13:00:00 15.9 8 Sur 20 Sur 0 -- -- 57
2019-12-04 12:00:00 16.3 5 Este 16 Nordeste 0 -- -- 52
2019-12-04 11:00:00 15.5 4 Este 16 Sudeste 0 -- -- 55
2019-12-04 10:00:00 14.2 6 Nordeste 15 Este 0 -- -- 60
2019-12-04 09:00:00 11.3 0 Calma 6 Nordeste 0 -- -- 70
2019-12-04 08:00:00 10.2 3 Norte 11 Oeste 0 -- -- 79
2019-12-04 07:00:00 10.2 5 Noroeste 10 Oeste 0 -- -- 79
2019-12-04 06:00:00 9.8 4 Noroeste 8 Oeste 0 -- -- 77
2019-12-04 05:00:00 9.3 4 Sudoeste 10 Noroeste 0 -- -- 77
2019-12-04 04:00:00 8.8 5 Noroeste 12 Oeste 0 -- -- 73
2019-12-04 03:00:00 9.4 5 Oeste 13 Oeste 0 -- -- 73
2019-12-04 02:00:00 9.5 6 Noroeste 10 Oeste 0 -- -- 70
2019-12-04 01:00:00 10 8 Oeste 12 Oeste 0 -- -- 69
2019-12-04 00:00:00 10.6 3 Sur 14 Norte 0 -- -- 68
2019-12-03 23:00:00 10.3 5 Sudoeste 10 Nordeste 0 -- -- 67
2019-12-03 22:00:00 10.4 4 Sur 11 Oeste 0 -- -- 73
2019-12-03 21:00:00 10.7 8 Oeste 17 Oeste 0 -- -- 64
2019-12-03 20:00:00 11 6 Noroeste 15 Oeste 0 -- -- 65
2019-12-03 19:00:00 11.8 9 Oeste 17 Oeste 0 -- -- 62
2019-12-03 18:00:00 12.4 6 Oeste 34 Noroeste 0 -- -- 61
2019-12-03 17:00:00 12.9 14 Noroeste 33 Noroeste 0 -- -- 62
2019-12-03 16:00:00 13.3 15 Norte 30 Noroeste 0 -- -- 61
2019-12-03 15:00:00 15.1 4 Norte 37 Norte 0 -- -- 60
2019-12-03 14:00:00 16.8 11 Norte 33 Nordeste 0 -- -- 49
2019-12-03 13:00:00 17 7 Nordeste 25 Nordeste 0 -- -- 50
2019-12-03 12:00:00 15.8 8 Nordeste 37 Norte 0 -- -- 52
2019-12-03 11:00:00 15.5 9 Nordeste 34 Norte 0.2 -- -- 54
2019-12-03 10:00:00 14.1 8 Noroeste 24 Noroeste 0 -- -- 62
2019-12-03 09:00:00 12.2 5 Sudeste 18 Sur 0 -- -- 71
2019-12-03 08:00:00 11 6 Sudeste 16 Sudoeste 0 -- -- 81
2019-12-03 07:00:00 10.4 6 Sur 14 Sur 0 -- -- 94
2019-12-03 06:00:00 10.6 5 Sur 14 Sur 0.2 -- -- 94
2019-12-03 05:00:00 10.7 4 Sudeste 19 Este 0 -- -- 94
2019-12-03 04:00:00 10.8 3 Sur 14 Este 0 -- -- 92
2019-12-03 03:00:00 11 4 Sudeste 10 Sudeste 0 -- -- 90
2019-12-03 02:00:00 11.2 3 Sudeste 11 Sudeste 0 -- -- 92
2019-12-03 01:00:00 11.5 3 Este 17 Norte 0 -- -- 89
2019-12-03 00:00:00 11.5 4 Sudeste 13 Sur 0 -- -- 83
2019-12-02 23:00:00 12.1 3 Este 16 Sur 0 -- -- 78
2019-12-02 22:00:00 12.1 3 Sudoeste 19 Oeste 0 -- -- 75
2019-12-02 21:00:00 12.3 4 Sudoeste 20 Oeste 0 -- -- 74
2019-12-02 20:00:00 12.2 5 Sudoeste 15 Sudoeste 0 -- -- 69
2019-12-02 19:00:00 12.6 5 Sur 13 Noroeste 0 -- -- 88
2019-12-02 18:00:00 13.8 5 Sur 12 Sudeste 0 -- -- 78
2019-12-02 17:00:00 16.7 5 Oeste 24 Oeste 0 -- -- 71
2019-12-02 16:00:00 18.2 6 Oeste 20 Noroeste 0 -- -- 51
2019-12-02 15:00:00 18.8 9 Noroeste 31 Oeste 0 -- -- 48
2019-12-02 14:00:00 18.8 10 Oeste 26 Oeste 0 -- -- 47
2019-12-02 13:00:00 17.9 5 Este 19 Este 0 -- -- 68
2019-12-02 12:00:00 15.8 3 Sudeste 14 Este 0 -- -- 78
2019-12-02 11:00:00 15.3 4 Sur 12 Nordeste 0 -- -- 74
2019-12-02 10:00:00 15.8 4 Este 12 Nordeste 0 -- -- 68
2019-12-02 09:00:00 11.9 4 Nordeste 9 Nordeste 0 -- -- 82
2019-12-02 08:00:00 10.2 3 Nordeste 8 Oeste 0 -- -- 89
2019-12-02 07:00:00 10.9 2 Sudeste 9 Sudoeste 0 -- -- 84
2019-12-02 06:00:00 11.2 4 Oeste 6 Sudeste 0 -- -- 70
2019-12-02 05:00:00 11.7 6 Oeste 12 Sudoeste 0 -- -- 68
2019-12-02 04:00:00 11.5 8 Sudoeste 10 Sudoeste 0 -- -- 76
2019-12-02 03:00:00 11.2 3 Oeste 6 Noroeste 0 -- -- 82
2019-12-02 02:00:00 11.4 4 Noroeste 6 Este 0 -- -- 81
2019-12-02 01:00:00 12.1 3 Nordeste 6 Este 0 -- -- 84
2019-12-02 00:00:00 13.1 3 Nordeste 6 Sudeste 0 -- -- 66
2019-12-01 23:00:00 14.4 4 Sudoeste 6 Sudeste 0 -- -- 43
2019-12-01 22:00:00 13.7 4 Oeste 10 Noroeste 0 -- -- 69
2019-12-01 21:00:00 13.7 4 Sur 7 Nordeste 0 -- -- 84
2019-12-01 20:00:00 14.6 4 Oeste 8 Sudoeste 0 -- -- 82
2019-12-01 19:00:00 16.2 4 Sudoeste 9 Sudoeste 0 -- -- 54
2019-12-01 18:00:00 16.6 3 Sur 7 Este 0 -- -- 76
2019-12-01 17:00:00 19 3 Sudeste 12 Sudeste 0 -- -- 67
2019-12-01 16:00:00 21 4 Este 13 Este 0 -- -- 58
2019-12-01 15:00:00 22 5 Este 13 Este 0 -- -- 56
2019-12-01 14:00:00 22.5 6 Este 16 Este 0 -- -- 53
2019-12-01 13:00:00 23.1 6 Este 16 Este 0 -- -- 49
2019-12-01 12:00:00 23.7 4 Este 14 Este 0 -- -- 42
2019-12-01 11:00:00 23.1 6 Este 14 Este 0 -- -- 33
2019-12-01 10:00:00 22 6 Este 12 Este 0 -- -- 27
2019-12-01 09:00:00 19.7 2 Sur 13 Noroeste 0 -- -- 27
2019-12-01 08:00:00 17.5 8 Oeste 14 Noroeste 0 -- -- 30
2019-12-01 07:00:00 16.7 6 Noroeste 12 Noroeste 0 -- -- 31
2019-12-01 06:00:00 17.9 3 Sudoeste 10 Oeste 0 -- -- 30
2019-12-01 05:00:00 17.5 5 Oeste 10 Oeste 0 -- -- 30
2019-12-01 04:00:00 17.5 5 Oeste 10 Oeste 0 -- -- 28
2019-12-01 03:00:00 17.3 5 Oeste 9 Oeste 0 -- -- 29
2019-12-01 02:00:00 18.1 5 Oeste 10 Oeste 0 -- -- 28
2019-12-01 01:00:00 18.5 3 Sudoeste 11 Oeste 0 -- -- 27
2019-12-01 00:00:00 17.9 6 Sudoeste 9 Sudoeste 0 -- -- 26
2019-11-30 23:00:00 18.5 5 Sudoeste 9 Sudoeste 0 -- -- 25
2019-11-30 22:00:00 18.7 3 Sudoeste 5 Sudoeste 0 -- -- 24
2019-11-30 21:00:00 18.4 3 Sudoeste 5 Oeste 0 -- -- 25
2019-11-30 20:00:00 18.3 3 Oeste 4 Oeste 0 -- -- 27
2019-11-30 19:00:00 18.9 3 Oeste 8 Oeste 0 -- -- 30
2019-11-30 18:00:00 20.2 4 Sudoeste 8 Sudoeste 0 -- -- 28
2019-11-30 17:00:00 23.1 4 Sur 14 Sudeste 0 -- -- 26
2019-11-30 16:00:00 24.3 4 Sudeste 13 Sudeste 0 -- -- 27
2019-11-30 15:00:00 25.5 4 Sudeste 15 Este 0 -- -- 23
2019-11-30 14:00:00 26.1 4 Este 18 Sudeste 0 -- -- 22
2019-11-30 13:00:00 26 4 Este 15 Este 0 -- -- 23
2019-11-30 12:00:00 25.6 4 Este 15 Este 0 -- -- 21
2019-11-30 11:00:00 24.8 4 Este 13 Este 0 -- -- 21
2019-11-30 10:00:00 23 3 Este 8 Este 0 -- -- 23
2019-11-30 09:00:00 19.5 4 Nordeste 11 Nordeste 0 -- -- 27
2019-11-30 08:00:00 17.9 3 Sudeste 7 Oeste 0 -- -- 28
2019-11-30 07:00:00 17.9 2 Sudoeste 9 Sur 0 -- -- 28
2019-11-30 06:00:00 18.5 3 Sur 11 Sudeste 0 -- -- 28
2019-11-30 05:00:00 18.7 5 Sudeste 16 Sudeste 0 -- -- 28
2019-11-30 04:00:00 18.5 4 Sudoeste 9 Este 0 -- -- 29
2019-11-30 03:00:00 18.8 6 Sudoeste 12 Sur 0 -- -- 28
2019-11-30 02:00:00 19.2 4 Sur 13 Sudeste 0 -- -- 28
2019-11-30 01:00:00 19.2 3 Sur 13 Sur 0 -- -- 27
2019-11-30 00:00:00 18.8 3 Sur 9 Sudeste 0 -- -- 27
2019-11-29 23:00:00 18.7 2 Oeste 6 Noroeste 0 -- -- 31
2019-11-29 22:00:00 18.2 4 Oeste 6 Oeste 0 -- -- 31
2019-11-29 21:00:00 18.8 3 Oeste 8 Oeste 0 -- -- 29
2019-11-29 20:00:00 18.7 4 Oeste 8 Noroeste 0 -- -- 29
2019-11-29 19:00:00 18.8 3 Noroeste 6 Noroeste 0 -- -- 29
2019-11-29 18:00:00 20.2 4 Oeste 6 Noroeste 0 -- -- 27
2019-11-29 17:00:00 23.4 3 Sudeste 15 Este 0 -- -- 24
2019-11-29 16:00:00 24.4 3 Este 15 Este 0 -- -- 24
2019-11-29 15:00:00 24.6 5 Este 22 Este 0 -- -- 24
2019-11-29 14:00:00 24.8 7 Este 22 Este 0 -- -- 24
2019-11-29 13:00:00 24.8 7 Este 22 Sudeste 0 -- -- 24
2019-11-29 12:00:00 24.5 5 Este 17 Sudeste 0 -- -- 26
2019-11-29 11:00:00 23.1 6 Este 15 Sudeste 0 -- -- 28
2019-11-29 10:00:00 21.5 4 Este 14 Este 0 -- -- 34
2019-11-29 09:00:00 18.4 4 Este 19 Nordeste 0 -- -- 36
2019-11-29 08:00:00 16.9 4 Sudeste 10 Sudeste 0 -- -- 38
2019-11-29 07:00:00 16.6 3 Sur 11 Sudeste 0 -- -- 39
2019-11-29 06:00:00 17.1 4 Sur 13 Este 0 -- -- 39
2019-11-29 05:00:00 17.6 5 Sudoeste 12 Sur 0 -- -- 37
2019-11-29 04:00:00 17.8 4 Sudoeste 15 Nordeste 0 -- -- 38
2019-11-29 03:00:00 18.3 4 Sur 19 Sudeste 0 -- -- 37
2019-11-29 02:00:00 18.1 6 Sur 11 Sur 0 -- -- 37
2019-11-29 01:00:00 18.4 3 Sudoeste 8 Sudoeste 0 -- -- 36
2019-11-29 00:00:00 18.1 5 Oeste 8 Sudoeste 0 -- -- 36
2019-11-28 23:00:00 18.6 5 Sudeste 10 Sudeste 0 -- -- 35
2019-11-28 22:00:00 17.3 3 Oeste 9 Oeste 0 -- -- 39
2019-11-28 21:00:00 17.3 5 Noroeste 8 Noroeste 0 -- -- 41
2019-11-28 20:00:00 17.9 4 Noroeste 10 Noroeste 0 -- -- 39
2019-11-28 19:00:00 18.2 5 Oeste 9 Oeste 0 -- -- 38
2019-11-28 18:00:00 18.3 5 Oeste 10 Oeste 0 -- -- 38
2019-11-28 17:00:00 19.3 4 Sur 7 Sudeste 0 -- -- 39
2019-11-28 16:00:00 20.2 3 Sudeste 12 Sudeste 0 -- -- 39
2019-11-28 15:00:00 21.1 4 Sudeste 13 Sudeste 0 -- -- 36
2019-11-28 14:00:00 21.2 5 Sudeste 15 Sudeste 0 -- -- 38
2019-11-28 13:00:00 21.8 5 Sudeste 18 Este 0 -- -- 36
2019-11-28 12:00:00 22.5 5 Este 20 Este 0 -- -- 37
2019-11-28 11:00:00 21.5 5 Este 14 Este 0 -- -- 37
2019-11-28 10:00:00 19.2 4 Este 10 Sudeste 0 -- -- 41
2019-11-28 09:00:00 16.3 4 Sur 12 Sur 0 -- -- 46
2019-11-28 08:00:00 15.1 6 Sudoeste 11 Sudoeste 0 -- -- 49
2019-11-28 07:00:00 15.4 6 Sudoeste 9 Sudoeste 0 -- -- 46
2019-11-28 06:00:00 15.4 5 Sudoeste 11 Sur 0 -- -- 45
2019-11-28 05:00:00 14.6 5 Sudoeste 12 Nordeste 0 -- -- 50
2019-11-28 04:00:00 15.7 4 Sudeste 10 Sudeste 0 -- -- 49
2019-11-28 03:00:00 15.2 2 Noroeste 7 Oeste 0 -- -- 51
2019-11-28 02:00:00 15.5 3 Sur 10 Sur 0 -- -- 51
2019-11-28 01:00:00 16.1 5 Sur 14 Sudoeste 0 -- -- 50
2019-11-28 00:00:00 15.7 3 Sudoeste 8 Sudoeste 0 -- -- 52
2019-11-27 23:00:00 15.6 3 Sudoeste 8 Este 0 -- -- 52
2019-11-27 22:00:00 15.6 0 Calma 6 Sudoeste 0 -- -- 56
2019-11-27 21:00:00 15.3 3 Oeste 12 Oeste 0 -- -- 56
2019-11-27 20:00:00 14.9 5 Sudoeste 7 Sudoeste 0 -- -- 61
2019-11-27 19:00:00 15.3 5 Oeste 6 Oeste 0 -- -- 64
2019-11-27 18:00:00 17.3 0 Calma 9 Sudeste 0 -- -- 56
2019-11-27 17:00:00 19.6 5 Sudeste 13 Sudeste 0 -- -- 47
2019-11-27 16:00:00 21 4 Sudeste 18 Sudeste 0 -- -- 46
2019-11-27 15:00:00 21.8 5 Sudeste 17 Este 0 -- -- 44
2019-11-27 14:00:00 21.9 6 Sudeste 22 Este 0 -- -- 46
2019-11-27 13:00:00 22.9 4 Este 20 Este 0 -- -- 43
2019-11-27 05:00:00 -- -- -- -- -- -- -- -- --
2019-11-27 04:00:00 15.5 3 Sudeste 8 Sudoeste 0 -- -- 54
2019-11-27 03:00:00 15.9 5 Sur 10 Sudeste 0 -- -- 53
2019-11-27 02:00:00 16.7 4 Sur 8 Este 0 -- -- 52
2019-11-27 01:00:00 16.7 5 Sudoeste 8 Sudoeste 0 -- -- 52
2019-11-27 00:00:00 17 6 Sur 12 Este 0 -- -- 51
2019-11-26 23:00:00 17.2 3 Este 8 Este 0 -- -- 49
2019-11-26 22:00:00 17 2 Nordeste 9 Sudoeste 0 -- -- 49
2019-11-26 21:00:00 16.1 4 Sudoeste 8 Sur 0 -- -- 53
2019-11-26 20:00:00 17 6 Sudoeste 9 Sudoeste 0 -- -- 54
2019-11-26 19:00:00 16.2 3 Este 8 Sur 0 -- -- 80
2019-11-26 18:00:00 17.4 2 Noroeste 4 Oeste 0 -- -- 74
2019-11-26 17:00:00 18.7 2 Este 8 Este 0 -- -- 70
2019-11-26 16:00:00 19.9 4 Este 14 Este 0 -- -- 65
2019-11-26 15:00:00 21 5 Este 15 Este 0 -- -- 61
2019-11-26 14:00:00 21.2 6 Este 20 Este 0 -- -- 58
2019-11-26 13:00:00 21.7 5 Este 15 Este 0 -- -- 55
2019-11-26 12:00:00 21.5 8 Este 15 Este 0 -- -- 53
2019-11-26 11:00:00 21.1 5 Este 11 Este 0 -- -- 53
2019-11-26 10:00:00 20.3 3 Este 7 Sudeste 0 -- -- 53
2019-11-26 09:00:00 16.7 2 Sur 5 Sudeste 0 -- -- 60
2019-11-26 08:00:00 14.9 2 Sudeste 8 Noroeste 0 -- -- 64
2019-11-26 07:00:00 14.8 5 Noroeste 8 Noroeste 0 -- -- 62
2019-11-26 06:00:00 16.4 4 Oeste 6 Oeste 0 -- -- 57
2019-11-26 05:00:00 16.2 4 Oeste 8 Nordeste 0 -- -- 57
2019-11-26 04:00:00 16 5 Oeste 9 Sudoeste 0 -- -- 55
2019-11-26 03:00:00 17 4 Sur 11 Sudeste 0 -- -- 51
2019-11-26 02:00:00 15.5 7 Sudoeste 9 Sudoeste 0 -- -- 59
2019-11-26 01:00:00 15.9 7 Sudoeste 12 Sur 0 -- -- 57
2019-11-26 00:00:00 16.5 6 Sudoeste 10 Sudoeste 0 -- -- 55
2019-11-25 23:00:00 14.3 3 Sur 10 Oeste 0 -- -- 68
2019-11-25 22:00:00 11.9 4 Oeste 8 Sudeste 0 -- -- 92
2019-11-25 21:00:00 12.5 2 Sudeste 6 Noroeste 0 -- -- 91
2019-11-25 20:00:00 13 3 Sudeste 5 Sudeste 0 -- -- 90
2019-11-25 19:00:00 13.7 0 Calma 8 Sudoeste 0 -- -- 86
2019-11-25 18:00:00 15 4 Sudoeste 9 Sudoeste 0 -- -- 80
2019-11-25 17:00:00 16 2 Nordeste 9 Este 0 -- -- 77
2019-11-25 16:00:00 17.4 4 Este 15 Sur 0 -- -- 71
2019-11-25 15:00:00 19.2 5 Sudeste 14 Sudeste 0 -- -- 64
2019-11-25 14:00:00 20 5 Este 16 Sudeste 0 -- -- 62
2019-11-25 13:00:00 20.1 5 Sudeste 14 Este 0 -- -- 60
2019-11-25 12:00:00 20 5 Este 15 Este 0 -- -- 58
2019-11-25 11:00:00 19 6 Este 15 Este 0 -- -- 57
2019-11-25 10:00:00 16.8 5 Nordeste 12 Este 0 -- -- 56
2019-11-25 09:00:00 13.9 2 Este 8 Este 0 -- -- 44
2019-11-25 08:00:00 13.5 2 Sur 10 Sudoeste 0 -- -- 36
2019-11-25 07:00:00 12.5 6 Sudoeste 11 Noroeste 0 -- -- 32
2019-11-25 06:00:00 12.2 3 Sudoeste 7 Sudoeste 0 -- -- 35
2019-11-25 05:00:00 12.2 3 Sur 6 Sudeste 0 -- -- 55
2019-11-25 04:00:00 11.7 5 Oeste 12 Sudoeste 0 -- -- 45
2019-11-25 03:00:00 11.8 4 Sur 8 Este 0 -- -- 57
2019-11-25 02:00:00 11.4 3 Noroeste 6 Oeste 0 -- -- 57
2019-11-25 01:00:00 12.1 2 Este 6 Sur 0 -- -- 60
2019-11-25 00:00:00 11.4 5 Sur 7 Sur 0 -- -- 93
2019-11-24 23:00:00 11.7 3 Oeste 7 Sudoeste 0 -- -- 95
2019-11-24 22:00:00 12.1 2 Noroeste 9 Noroeste 0 -- -- 91
2019-11-24 21:00:00 12.6 3 Sudoeste 8 Oeste 0 -- -- 90
2019-11-24 20:00:00 14.1 3 Sudoeste 6 Sudoeste 0 -- -- 91
2019-11-24 19:00:00 14.4 2 Sudoeste 5 Este 0 -- -- 89
2019-11-24 18:00:00 15.1 3 Nordeste 5 Sur 0 -- -- 88
2019-11-24 17:00:00 16.4 0 Calma 7 Sur 0 -- -- 83
2019-11-24 16:00:00 17.7 2 Este 12 Sur 0 -- -- 76
2019-11-24 15:00:00 20.2 4 Sudeste 18 Sudeste 0 -- -- 66
2019-11-24 14:00:00 20.8 4 Este 17 Sur 0 -- -- 64
2019-11-24 13:00:00 19.5 6 Sudeste 18 Sur 0 -- -- 67
2019-11-24 12:00:00 19.8 6 Este 18 Este 0 -- -- 64
2019-11-24 11:00:00 18.4 5 Este 12 Este 0 -- -- 69
2019-11-24 10:00:00 16.3 5 Este 11 Este 0 -- -- 78
2019-11-24 09:00:00 12.7 3 Este 7 Nordeste 0 -- -- 90
2019-11-24 08:00:00 10.6 5 Noroeste 9 Noroeste 0 -- -- 91
2019-11-24 07:00:00 10.5 6 Noroeste 9 Noroeste 0 -- -- 94
2019-11-24 06:00:00 11.1 5 Noroeste 8 Noroeste 0 -- -- 96
2019-11-24 05:00:00 11.3 3 Noroeste 8 Noroeste 0 -- -- 94
2019-11-24 04:00:00 11.3 4 Noroeste 10 Noroeste 0 -- -- 89
2019-11-24 03:00:00 11.4 5 Oeste 10 Oeste 0 -- -- 91
2019-11-24 02:00:00 11.9 3 Noroeste 8 Noroeste 0 -- -- 92
2019-11-24 01:00:00 12 3 Noroeste 5 Oeste 0 -- -- 92
2019-11-24 00:00:00 12.5 3 Este 8 Noroeste 0 -- -- 93
2019-11-23 23:00:00 13.1 2 Noroeste 5 Sudoeste 0 -- -- 91
2019-11-23 22:00:00 12.9 3 Noroeste 6 Oeste 0 -- -- 90
2019-11-23 21:00:00 13.6 3 Oeste 6 Sudoeste 0 -- -- 88
2019-11-23 20:00:00 13.8 4 Oeste 6 Oeste 0 -- -- 90
2019-11-23 19:00:00 15 2 Sur 10 Este 0 -- -- 91
2019-11-23 18:00:00 15.9 2 Este 13 Sur 0 -- -- 90
2019-11-23 17:00:00 16.8 6 Sur 17 Sur 0 -- -- 85
2019-11-23 16:00:00 17.6 6 Sur 18 Sur 0 -- -- 81
2019-11-23 15:00:00 18.9 7 Sur 17 Sur 0 -- -- 76
2019-11-23 14:00:00 20.7 6 Sudeste 16 Sudeste 0 -- -- 68
2019-11-23 13:00:00 20.9 5 Este 15 Este 0 -- -- 67
2019-11-23 12:00:00 19.9 6 Este 15 Este 0 -- -- 70
2019-11-23 11:00:00 17.1 3 Este 12 Este 0 -- -- 81
2019-11-23 10:00:00 17.7 4 Este 13 Este 0 -- -- 78
2019-11-23 09:00:00 14.1 3 Este 8 Este 0 -- -- 94
2019-11-23 08:00:00 12.4 0 Calma 6 Oeste 0 -- -- 95
2019-11-23 07:00:00 12.2 0 Calma 4 Oeste 0 -- -- 94
2019-11-23 06:00:00 12.2 4 Noroeste 9 Noroeste 0 -- -- 93
2019-11-23 05:00:00 12.3 0 Calma 5 Noroeste 0 -- -- 90
2019-11-23 04:00:00 12.3 4 Noroeste 6 Nordeste 0 -- -- 90
2019-11-23 03:00:00 12.9 3 Nordeste 14 Noroeste 0 -- -- 91
2019-11-23 02:00:00 13.1 0 Calma 8 Noroeste 0 -- -- 93
2019-11-23 01:00:00 13.1 3 Sudoeste 6 Nordeste 0 -- -- 91
2019-11-23 00:00:00 13.3 5 Sudoeste 8 Oeste 0 -- -- 93
2019-11-22 23:00:00 13.3 0 Calma 5 Oeste 0 -- -- 95
2019-11-22 22:00:00 13.3 5 Noroeste 9 Noroeste 0 -- -- 93
2019-11-22 21:00:00 14.2 5 Noroeste 9 Noroeste 0 -- -- 92
2019-11-22 20:00:00 14.7 2 Este 7 Sur 0 -- -- 93
2019-11-22 19:00:00 14.8 2 Sudeste 6 Este 0 -- -- 91
2019-11-22 18:00:00 15.6 2 Sudeste 7 Sudeste 0 -- -- 88
2019-11-22 17:00:00 16.4 0 Calma 9 Sudeste 0 -- -- 83
2019-11-22 16:00:00 16.7 3 Sur 13 Sur 0 -- -- 83
2019-11-22 15:00:00 18.1 4 Sudeste 15 Este 0 -- -- 76
2019-11-22 14:00:00 19.6 4 Este 14 Este 0 -- -- 70
2019-11-22 13:00:00 21.7 4 Este 15 Este 0 -- -- 62
2019-11-22 12:00:00 20.8 5 Este 15 Sudeste 0 -- -- 64
2019-11-22 11:00:00 20 6 Este 17 Este 0 -- -- 65
2019-11-22 10:00:00 18.5 4 Este 10 Este 0 -- -- 70
2019-11-22 09:00:00 14.5 3 Este 6 Este 0 -- -- 83
2019-11-22 08:00:00 13.1 3 Sudoeste 6 Oeste 0 -- -- 86
2019-11-22 07:00:00 12.2 5 Oeste 8 Noroeste 0 -- -- 89
2019-11-22 06:00:00 12.3 6 Noroeste 8 Noroeste 0 -- -- 89
2019-11-22 05:00:00 12.8 4 Oeste 6 Oeste 0 -- -- 88
2019-11-22 04:00:00 13 3 Noroeste 10 Noroeste 0 -- -- 85
2019-11-22 03:00:00 13.1 5 Oeste 8 Noroeste 0 -- -- 86
2019-11-22 02:00:00 13.4 3 Oeste 8 Noroeste 0 -- -- 84
2019-11-22 01:00:00 13 6 Noroeste 10 Noroeste 0 -- -- 87
2019-11-22 00:00:00 13.3 0 Calma 7 Sudoeste 0 -- -- 88
2019-11-21 23:00:00 13.3 6 Noroeste 9 Noroeste 0 -- -- 89
2019-11-21 22:00:00 13.1 2 Noroeste 6 Oeste 0 -- -- 91
2019-11-21 21:00:00 13 5 Este 10 Este 0 -- -- 94
2019-11-21 20:00:00 13.4 0 Calma 6 Sudeste 0 -- -- 93
2019-11-21 19:00:00 13.7 3 Este 10 Sudeste 0 -- -- 92
2019-11-21 18:00:00 14.5 2 Sudeste 8 Este 0 -- -- 89
2019-11-21 17:00:00 15.4 4 Este 12 Sudeste 0 -- -- 86
2019-11-21 16:00:00 16.2 3 Este 11 Este 0 -- -- 81
2019-11-21 15:00:00 17.8 4 Este 15 Este 0 -- -- 75
2019-11-21 14:00:00 19 4 Este 15 Este 0 -- -- 71
2019-11-21 13:00:00 19.9 5 Este 16 Este 0 -- -- 67
2019-11-21 12:00:00 18.8 6 Este 17 Este 0 -- -- 68
2019-11-21 11:00:00 17.7 4 Este 13 Este 0 -- -- 72
2019-11-21 10:00:00 16.9 6 Este 27 Oeste 0 -- -- 73
2019-11-21 09:00:00 14 14 Oeste 27 Oeste 0 -- -- 80
2019-11-21 08:00:00 12.7 8 Noroeste 22 Oeste 0 -- -- 86
2019-11-21 07:00:00 -- -- -- -- -- -- -- -- --
2019-11-21 06:00:00 -- -- -- -- -- -- -- -- --
2019-11-21 05:00:00 -- -- -- -- -- -- -- -- --
2019-11-21 04:00:00 -- -- -- -- -- -- -- -- --
2019-11-21 03:00:00 -- -- -- -- -- -- -- -- --
2019-11-21 02:00:00 -- -- -- -- -- -- -- -- --
2019-11-21 01:00:00 -- -- -- -- -- -- -- -- --
2019-11-21 00:00:00 -- -- -- -- -- -- -- -- --
2019-11-20 23:00:00 -- -- -- -- -- -- -- -- --
2019-11-20 22:00:00 -- -- -- -- -- -- -- -- --
2019-11-20 21:00:00 -- -- -- -- -- -- -- -- --
2019-11-20 20:00:00 -- -- -- -- -- -- -- -- --
2019-11-20 19:00:00 14.5 2 Sudeste 5 Este 0 -- -- 81
2019-11-20 18:00:00 15.8 2 Este 8 Este 0 -- -- 74
2019-11-20 17:00:00 16.7 3 Este 12 Este 0 -- -- 69
2019-11-20 16:00:00 17.5 3 Este 14 Este 0 -- -- 65
2019-11-20 15:00:00 18.4 5 Sudeste 17 Este 0 -- -- 63
2019-11-20 14:00:00 19.8 4 Sudeste 16 Sudeste 0 -- -- 57
2019-11-20 13:00:00 20.7 5 Este 17 Este 0 -- -- 53
2019-11-20 12:00:00 19.1 7 Este 17 Sudeste 0 -- -- 51
2019-11-20 11:00:00 18.6 5 Este 14 Este 0 -- -- 52
2019-11-20 10:00:00 16.3 6 Este 14 Nordeste 0 -- -- 58
2019-11-20 09:00:00 12.3 3 Nordeste 7 Nordeste 0 -- -- 72
2019-11-20 08:00:00 10.3 4 Noroeste 7 Noroeste 0 -- -- 74
2019-11-20 07:00:00 10.3 3 Oeste 8 Oeste 0 -- -- 74
2019-11-20 06:00:00 10.1 4 Oeste 8 Oeste 0 -- -- 74
2019-11-20 05:00:00 9.9 3 Oeste 6 Oeste 0 -- -- 81
2019-11-20 04:00:00 10.4 3 Oeste 4 Oeste 0 -- -- 75
2019-11-20 03:00:00 10.3 4 Sudoeste 8 Noroeste 0 -- -- 77
2019-11-20 02:00:00 10.4 4 Oeste 6 Oeste 0 -- -- 75
2019-11-20 01:00:00 10.6 2 Este 7 Sudoeste 0 -- -- 79
2019-11-20 00:00:00 10.9 3 Sur 8 Oeste 0 -- -- 80
2019-11-19 23:00:00 10.7 3 Noroeste 8 Noroeste 0 -- -- 81
2019-11-19 22:00:00 11.1 2 Norte 6 Oeste 0 -- -- 90
2019-11-19 21:00:00 12.2 3 Sudoeste 6 Sudoeste 0 -- -- 91
2019-11-19 20:00:00 12.6 2 Sudoeste 8 Sudoeste 0 -- -- 92
2019-11-19 19:00:00 13.2 4 Sur 11 Sur 0 -- -- 90
2019-11-19 18:00:00 13.7 5 Sur 11 Sur 0 -- -- 87
2019-11-19 17:00:00 14.6 6 Sur 14 Sur 0 -- -- 78
2019-11-19 16:00:00 16 3 Sudeste 12 Este 0 -- -- 71
2019-11-19 15:00:00 17 3 Este 18 Este 0 -- -- 66
2019-11-19 14:00:00 18 4 Sudeste 20 Sur 0 -- -- 62
2019-11-19 13:00:00 19.2 6 Sudeste 17 Nordeste 0 -- -- 58
2019-11-19 12:00:00 19.9 5 Este 17 Este 0 -- -- 52
2019-11-19 11:00:00 18.5 5 Este 14 Este 0 -- -- 54
2019-11-19 10:00:00 16.3 4 Este 11 Este 0 -- -- 59
2019-11-19 09:00:00 12.1 2 Nordeste 8 Este 0 -- -- 70
2019-11-19 08:00:00 9.9 2 Noroeste 6 Oeste 0 -- -- 79
2019-11-19 07:00:00 9.1 4 Oeste 7 Oeste 0 -- -- 82
2019-11-19 06:00:00 9.1 3 Oeste 5 Oeste 0 -- -- 84
2019-11-19 05:00:00 9.5 3 Sudoeste 7 Noroeste 0 -- -- 84
2019-11-19 04:00:00 9.3 6 Noroeste 8 Noroeste 0 -- -- 83
2019-11-19 03:00:00 10.1 3 Sur 9 Noroeste 0 -- -- 78
2019-11-19 02:00:00 9.6 5 Noroeste 9 Oeste 0 -- -- 85
2019-11-19 01:00:00 9.7 5 Oeste 6 Oeste 0 -- -- 86
2019-11-19 00:00:00 10.3 4 Sudoeste 6 Sudoeste 0 -- -- 85
2019-11-18 23:00:00 10.2 4 Oeste 6 Oeste 0 -- -- 87
2019-11-18 22:00:00 10.8 0 Calma 6 Sudoeste 0 -- -- 87
2019-11-18 21:00:00 11.4 4 Oeste 9 Sudoeste 0 -- -- 85
2019-11-18 20:00:00 12.6 2 Sur 6 Sur 0 -- -- 79
2019-11-18 19:00:00 13.1 2 Este 5 Sudeste 0 -- -- 74
2019-11-18 18:00:00 13.7 3 Este 9 Sudeste 0 -- -- 72
2019-11-18 17:00:00 15.3 2 Sudeste 11 Sudeste 0 -- -- 69
2019-11-18 16:00:00 16 4 Sudeste 15 Sur 0 -- -- 65
2019-11-18 15:00:00 17.5 8 Sur 17 Sur 0 -- -- 58
2019-11-18 14:00:00 19.2 6 Sudeste 19 Sur 0 -- -- 52
2019-11-18 13:00:00 19.8 4 Sudeste 18 Este 0 -- -- 50
2019-11-18 12:00:00 19.1 5 Sudeste 14 Este 0 -- -- 48
2019-11-18 11:00:00 18.5 5 Este 14 Este 0 -- -- 43
2019-11-18 10:00:00 16.3 4 Este 12 Este 0 -- -- 40
2019-11-18 09:00:00 13 2 Este 5 Sudoeste 0 -- -- 45
2019-11-18 08:00:00 11.7 3 Sur 4 Sudoeste 0 -- -- 42
2019-11-18 07:00:00 12.5 3 Sudeste 8 Noroeste 0 -- -- 41
2019-11-18 06:00:00 12 6 Oeste 11 Oeste 0 -- -- 41
2019-11-18 05:00:00 11.6 7 Oeste 11 Oeste 0 -- -- 42
2019-11-18 04:00:00 11.1 6 Noroeste 9 Oeste 0 -- -- 44
2019-11-18 03:00:00 11 5 Oeste 8 Oeste 0 -- -- 44
2019-11-18 02:00:00 11.2 6 Oeste 13 Noroeste 0 -- -- 46
2019-11-18 01:00:00 12.2 2 Sudeste 20 Noroeste 0 -- -- 51
2019-11-18 00:00:00 8.7 7 Oeste 14 Oeste 0 -- -- 82
2019-11-17 23:00:00 9.4 4 Noroeste 8 Noroeste 0 -- -- 85
2019-11-17 22:00:00 9.7 4 Oeste 6 Oeste 0 -- -- 85
2019-11-17 21:00:00 10.1 4 Oeste 9 Sudoeste 0 -- -- 82
2019-11-17 20:00:00 10.8 0 Calma 5 Sudoeste 0 -- -- 82
2019-11-17 19:00:00 11.8 3 Sudoeste 8 Sudoeste 0 -- -- 77
2019-11-17 18:00:00 13.3 3 Sur 11 Sudeste 0 -- -- 70
2019-11-17 17:00:00 13.9 5 Sur 17 Sur 0 -- -- 67
2019-11-17 16:00:00 15.4 6 Sur 15 Sudeste 0 -- -- 63
2019-11-17 15:00:00 15.8 7 Sur 22 Sudeste 0 -- -- 63
2019-11-17 14:00:00 16.9 12 Sur 22 Sudeste 0 -- -- 58
2019-11-17 13:00:00 16.7 6 Este 22 Sur 0 -- -- 52
2019-11-17 12:00:00 15.2 7 Sur 37 Nordeste 0 -- -- 62
2019-11-17 11:00:00 15.7 5 Sudeste 25 Este 0 -- -- 60
2019-11-17 10:00:00 14.2 5 Sur 15 Sur 0 -- -- 66
2019-11-17 09:00:00 10.4 7 Sur 20 Sur 0 -- -- 88
2019-11-17 08:00:00 10.4 5 Sudoeste 20 Oeste 0 -- -- 83
2019-11-17 07:00:00 10.2 9 Sudoeste 23 Oeste 0 -- -- 84
2019-11-17 06:00:00 10.5 12 Norte 30 Sudeste 0 -- -- 82
2019-11-17 05:00:00 9.6 5 Oeste 12 Sudoeste 0 -- -- 87
2019-11-17 04:00:00 10 4 Sudoeste 13 Sudoeste 0 -- -- 82
2019-11-17 03:00:00 10.1 6 Sudoeste 15 Sur 0 -- -- 84
2019-11-17 02:00:00 10.4 7 Sur 23 Nordeste 0 -- -- 86
2019-11-17 01:00:00 11.1 7 Nordeste 22 Este 0 -- -- 79
2019-11-17 00:00:00 10.8 3 Sur 11 Oeste 0 -- -- 83
2019-11-16 23:00:00 10.8 3 Sur 12 Sur 0 -- -- 83
2019-11-16 22:00:00 11.5 6 Sudoeste 36 Este 0 -- -- 81
2019-11-16 21:00:00 12.3 12 Nordeste 30 Noroeste 0 -- -- 71
2019-11-16 20:00:00 11.9 6 Oeste 20 Sur 0 -- -- 75
2019-11-16 19:00:00 12.2 3 Oeste 14 Sur 0 -- -- 75
2019-11-16 18:00:00 13.5 6 Nordeste 35 Nordeste 0 -- -- 62
2019-11-16 17:00:00 14.7 8 Este 40 Este 0 -- -- 56
2019-11-16 16:00:00 16.1 15 Este 36 Nordeste 0 -- -- 50
2019-11-16 15:00:00 18.6 5 Sudeste 19 Sudeste 0 -- -- 52
2019-11-16 14:00:00 18.3 8 Sur 23 Sudoeste 0 -- -- 47
2019-11-16 13:00:00 17.6 13 Sur 23 Norte 0 -- -- 47
2019-11-16 12:00:00 16.3 12 Nordeste 63 Nordeste 0 -- -- 47
2019-11-16 11:00:00 14.7 23 Nordeste 53 Norte 0 -- -- 58
2019-11-16 10:00:00 13.8 8 Sudoeste 60 Nordeste 0 -- -- 70
2019-11-16 09:00:00 12.9 9 Oeste 35 Norte 0 -- -- 69
2019-11-16 08:00:00 11.6 19 Norte 39 Norte 0 -- -- 72
2019-11-16 07:00:00 11.6 14 Norte 35 Norte 0 -- -- 76
2019-11-16 06:00:00 11.5 13 Norte 47 Noroeste 0 -- -- 72
2019-11-16 05:00:00 11.8 13 Norte 47 Norte 0 -- -- 75
2019-11-16 04:00:00 12 11 Oeste 45 Norte 0 -- -- 73
2019-11-16 03:00:00 11.2 18 Norte 45 Noroeste 0 -- -- 77
2019-11-16 02:00:00 11.5 12 Noroeste 49 Noroeste 0 -- -- 77
2019-11-16 01:00:00 11.8 15 Noroeste 43 Norte 0 -- -- 77
2019-11-16 00:00:00 11.3 16 Sudeste 73 Norte 0 -- -- 74
2019-11-15 23:00:00 11.6 13 Oeste 38 Nordeste 0 -- -- 76
2019-11-15 22:00:00 11.9 12 Noroeste 48 Este 0 -- -- 69
2019-11-15 21:00:00 12.1 12 Noroeste 50 Noroeste 0 -- -- 77
2019-11-15 20:00:00 11.9 13 Oeste 42 Noroeste 0 -- -- 72
2019-11-15 19:00:00 11.7 13 Noroeste 67 Norte 0 -- -- 72
2019-11-15 18:00:00 12.1 8 Sudoeste 31 Oeste 0 -- -- 77
2019-11-15 17:00:00 12.5 18 Oeste 54 Norte 0 -- -- 70
2019-11-15 16:00:00 14 12 Noroeste 47 Noroeste 0 -- -- 72
2019-11-15 15:00:00 14.2 12 Norte 32 Norte 0 -- -- 71
2019-11-15 14:00:00 13.8 9 Sur 18 Sur 0.2 -- -- 84
2019-11-15 13:00:00 14.2 9 Sudeste 22 Sudeste 0.4 -- -- 89
2019-11-15 12:00:00 14.6 6 Sur 20 Sur 0.4 -- -- 87
2019-11-15 11:00:00 14 5 Noroeste 17 Este 0.2 -- -- 81
2019-11-15 10:00:00 13.5 7 Oeste 19 Oeste 0 -- -- 85
2019-11-15 09:00:00 13.4 8 Noroeste 30 Noroeste 0 -- -- 82
2019-11-15 08:00:00 12.7 7 Sudoeste 35 Este 0 -- -- 77
2019-11-15 07:00:00 11.3 7 Sudoeste 18 Este 0 -- -- 83
2019-11-15 06:00:00 11.3 8 Sudoeste 15 Sudoeste 0 -- -- 85
2019-11-15 05:00:00 10.8 5 Sudoeste 15 Sudoeste 0 -- -- 87
2019-11-15 04:00:00 11.4 4 Oeste 17 Sur 0 -- -- 81
2019-11-15 03:00:00 11.4 6 Sudoeste 13 Sudoeste 0 -- -- 86
2019-11-15 02:00:00 10.9 7 Sudoeste 12 Sudoeste 0 -- -- 92
2019-11-15 01:00:00 11.9 2 Sudoeste 19 Sudoeste 0 -- -- 89
2019-11-15 00:00:00 11.2 5 Oeste 10 Sudoeste 0 -- -- 84
2019-11-14 23:00:00 12.1 3 Sudoeste 15 Sudoeste 0 -- -- 79
2019-11-14 22:00:00 12.5 9 Sudoeste 16 Sudoeste 0 -- -- 81
2019-11-14 21:00:00 12.6 3 Oeste 10 Sur 0 -- -- 85
2019-11-14 20:00:00 13.1 3 Este 11 Sudoeste 0 -- -- 85
2019-11-14 19:00:00 14 3 Sudoeste 11 Sudoeste 0 -- -- 77
2019-11-14 18:00:00 14.9 5 Sudoeste 10 Sudoeste 0 -- -- 71
2019-11-14 17:00:00 15.8 4 Sur 13 Sur 0 -- -- 74
2019-11-14 16:00:00 17.7 5 Sudeste 15 Sudeste 0 -- -- 66
2019-11-14 15:00:00 19.2 5 Este 16 Nordeste 0 -- -- 56
2019-11-14 14:00:00 20.5 5 Este 21 Este 0 -- -- 50
2019-11-14 13:00:00 19.9 5 Este 15 Sudeste 0 -- -- 52
2019-11-14 12:00:00 19.4 5 Sudeste 16 Este 0 -- -- 49
2019-11-14 11:00:00 17.7 3 Norte 12 Este 0 -- -- 49
2019-11-14 10:00:00 15.8 4 Este 10 Este 0 -- -- 58
2019-11-14 09:00:00 13.5 3 Oeste 8 Oeste 0 -- -- 59
2019-11-14 08:00:00 12.9 6 Este 9 Sudeste 0 -- -- 59
2019-11-14 07:00:00 12.4 5 Oeste 7 Oeste 0 -- -- 54
2019-11-14 06:00:00 12.7 2 Sudeste 12 Oeste 0 -- -- 60
2019-11-14 05:00:00 12.1 4 Nordeste 8 Este 0 -- -- 66
2019-11-14 04:00:00 11.7 4 Oeste 11 Sudoeste 0 -- -- 78
2019-11-14 03:00:00 12.9 5 Este 12 Nordeste 0 -- -- 63
2019-11-14 02:00:00 13.1 4 Nordeste 14 Sudoeste 0 -- -- 60
2019-11-14 01:00:00 14.6 13 Sur 22 Sudoeste 0 -- -- 52
2019-11-14 00:00:00 13.4 6 Sudoeste 12 Oeste 0 -- -- 55
2019-11-13 23:00:00 13.1 3 Oeste 16 Sudoeste 0 -- -- 70
2019-11-13 22:00:00 13.7 5 Noroeste 14 Sudeste 0 -- -- 67
2019-11-13 21:00:00 16.6 6 Sudeste 14 Sudeste 0 -- -- 38
2019-11-13 20:00:00 15.8 6 Este 18 Sudeste 0 -- -- 36
2019-11-13 19:00:00 16.2 11 Sur 24 Sudeste 0 -- -- 59
2019-11-13 18:00:00 17.4 8 Sur 24 Este 0 -- -- 53
2019-11-13 17:00:00 19.1 10 Sur 21 Sur 0 -- -- 41
2019-11-13 16:00:00 20.3 8 Sudeste 22 Sur 0 -- -- 42
2019-11-13 15:00:00 22 12 Sur 26 Sudeste 0 -- -- 42
2019-11-13 14:00:00 22.7 12 Sudeste 25 Sudeste 0 -- -- 23
2019-11-13 13:00:00 22.8 9 Sudoeste 29 Sur 0 -- -- 37
2019-11-13 12:00:00 22.6 9 Sudeste 33 Sudeste 0 -- -- 23
2019-11-13 11:00:00 20.6 7 Sur 22 Sur 0 -- -- 36
2019-11-13 10:00:00 18.9 10 Sur 30 Sur 0 -- -- 30
2019-11-13 09:00:00 17.3 12 Sudoeste 28 Este 0 -- -- 37
2019-11-13 08:00:00 16.9 8 Sur 23 Sudeste 0 -- -- 28
2019-11-13 07:00:00 16.9 4 Sudeste 24 Sudoeste 0 -- -- 32
2019-11-13 06:00:00 17.2 11 Sur 20 Sudoeste 0 -- -- 29
2019-11-13 05:00:00 16.8 8 Sur 23 Sur 0 -- -- 36
2019-11-13 04:00:00 17.2 7 Sur 53 Este 0 -- -- 34
2019-11-13 03:00:00 18.2 16 Nordeste 66 Nordeste 0 -- -- 35
2019-11-13 02:00:00 18.3 36 Nordeste 75 Nordeste 0 -- -- 35
2019-11-13 01:00:00 18.6 42 Nordeste 79 Nordeste 0 -- -- 37
2019-11-13 00:00:00 19.1 46 Nordeste 81 Nordeste 0 -- -- 36
2019-11-12 23:00:00 19.1 36 Nordeste 75 Nordeste 0 -- -- 36
2019-11-12 22:00:00 19.8 31 Nordeste 62 Nordeste 0 -- -- 31
2019-11-12 21:00:00 19.3 23 Nordeste 51 Nordeste 0 -- -- 26
2019-11-12 20:00:00 19.2 9 Este 35 Nordeste 0 -- -- 25
2019-11-12 19:00:00 19.9 9 Sudoeste 45 Norte 0 -- -- 33
2019-11-12 18:00:00 19.1 13 Sur 32 Sur 0 -- -- 49
2019-11-12 17:00:00 21.4 8 Sur 18 Sudoeste 0 -- -- 56
2019-11-12 16:00:00 22.3 10 Sur 21 Sur 0 -- -- 38
2019-11-12 15:00:00 21.7 9 Sur 26 Sudeste 0 -- -- 56
2019-11-12 14:00:00 22.6 8 Sudeste 29 Sudeste 0 -- -- 49
2019-11-12 13:00:00 21.6 7 Sur 26 Este 0 -- -- 51
2019-11-12 12:00:00 20.5 14 Sur 26 Sudeste 0 -- -- 57
2019-11-12 11:00:00 19.6 10 Sudeste 27 Sur 0 -- -- 55
2019-11-12 10:00:00 18 9 Sur 23 Sur 0 -- -- 64
2019-11-12 09:00:00 16.9 9 Sudeste 32 Norte 0 -- -- 64
2019-11-12 08:00:00 14.8 13 Sur 35 Norte 0 -- -- 73
2019-11-12 07:00:00 16.3 10 Sudeste 41 Norte 0 -- -- 54
2019-11-12 06:00:00 16.3 13 Sudeste 45 Nordeste 0 -- -- 48
2019-11-12 05:00:00 17 17 Nordeste 56 Este 0 -- -- 44
2019-11-12 04:00:00 17.9 22 Nordeste 55 Nordeste 0 -- -- 33
2019-11-12 03:00:00 18 17 Norte 58 Nordeste 0 -- -- 35
2019-11-12 02:00:00 18.4 16 Nordeste 73 Nordeste 0 -- -- 32
2019-11-12 01:00:00 18.9 29 Nordeste 94 Nordeste 0 -- -- 34
2019-11-12 00:00:00 19.3 55 Nordeste 103 Nordeste 0 -- -- 36